Shipley, Arizona
Current Conditions -  °F | °C
As of 10:51 AM on Sunday 25 Jan 2015 (Local Time) from KIGM Reporting Station
Clear Clear  
Wind Chill: 57°   Ceiling: Unl
Heat Index: 57°   Visibility: 10mi
Dew Point: 23°   Wind: 13mph
Humidity: 27%   Direction: 360°N
Pressure: 30.27"   Gusts: NA
Location:  35.5603°N, 113.544°W
Report Text: KIGM 251751Z AUTO 36011KT 10SM CLR 14/M05 A3027 RMK AO2 SLP218 T01391050 10139 20028 53003 $
Loading
Personal Weather Stations






























Interactive Weather Map New forecast layout! Learn more

10-Day Weather Forecast

Advertisements
Track Severe Weather on mobile